Superfast Canarias — 9HA3275 — position and weather

sailwx.info

Track history (hours):
 
Tides and Currents Weather Stations Pressure Air Temp Water Temp Dewpoint Dewpoint Depression Visibility Wind Speed Wind Dir Waves Ship Positions

Superfast Canarias

Last reported at 2017-Sep-19 00:41 UTC. Time now 2017-Sep-20 02:07 UTC.
Position N 44°12' E 013°13'.

Length 185 m; draft 6.8 m.

Type: Cargo ship. MMSI: 224665000.

Date/timePositionNaut miles runAvg speedWind from/ knotsBaromVisibWave heightAir tempDewpointWater temp
2017-Sep-19 00:41N 44°12' E 013°13'315.9
2017-Sep-19 00:30N 44°15' E 013°12'815.9
2017-Sep-19 00:00N 44°22' E 013°08'815.7
2017-Sep-18 23:30N 44°30' E 013°05'815.7
2017-Sep-18 23:00N 44°37' E 013°01'815.4
2017-Sep-18 22:30N 44°44' E 012°58'815.3
2017-Sep-18 22:00N 44°51' E 012°53'815.4
2017-Sep-18 21:30N 44°58' E 012°48'815.6
2017-Sep-18 21:00N 45°05' E 012°42'815.5
2017-Sep-18 20:30N 45°10' E 012°34'815.5
2017-Sep-18 20:00N 45°16' E 012°27'713.1
2017-Sep-18 19:30N 45°20' E 012°20'4 7.8
2017-Sep-18 19:00N 45°22' E 012°15'3 5.6
2017-Sep-18 18:28N 45°26' E 012°15'0 0.0
2017-Sep-18 17:58N 45°26' E 012°15'0 0.0
2017-Sep-18 17:28N 45°26' E 012°15'0 0.0
2017-Sep-18 16:58N 45°26' E 012°15'0 0.0
2017-Sep-18 16:25N 45°26' E 012°15'0 0.0
2017-Sep-18 15:58N 45°26' E 012°15'0 0.0
2017-Sep-18 15:28N 45°26' E 012°15'0 0.0
2017-Sep-18 14:58N 45°26' E 012°15'0 0.0
2017-Sep-18 14:28N 45°26' E 012°15'0 0.0
2017-Sep-18 13:58N 45°26' E 012°15'0 0.0
2017-Sep-18 13:28N 45°26' E 012°15'0 0.0
2017-Sep-18 12:58N 45°26' E 012°15'0 0.0
2017-Sep-18 12:28N 45°26' E 012°15'0 0.0
2017-Sep-18 11:58N 45°26' E 012°15'0 0.0
2017-Sep-18 11:28N 45°26' E 012°15'0 0.0
2017-Sep-18 10:58N 45°26' E 012°15'0 0.0
2017-Sep-18 10:28N 45°26' E 012°15'0 0.0
2017-Sep-18 09:58N 45°26' E 012°15'0 0.0
2017-Sep-18 09:28N 45°26' E 012°15'0 0.0
2017-Sep-18 08:58N 45°26' E 012°15'0 0.0
2017-Sep-18 08:28N 45°26' E 012°15'0 0.0
2017-Sep-18 07:58N 45°26' E 012°15'1 1.4
2017-Sep-18 07:30N 45°25' E 012°16'4 8.5
2017-Sep-18 07:00N 45°21' E 012°17'510.0
2017-Sep-18 06:31N 45°20' E 012°24'816.7
2017-Sep-18 06:01N 45°16' E 012°34'816.8
2017-Sep-18 05:31N 45°12' E 012°44'817.0
2017-Sep-18 05:01N 45°04' E 012°50'917.3
2017-Sep-18 04:30N 44°56' E 012°55'917.3
2017-Sep-18 04:01N 44°48' E 012°60'917.4
2017-Sep-18 03:30N 44°40' E 013°04'917.4
2017-Sep-18 03:01N 44°32' E 013°08'26312.5
2017-Sep-17 05:55N 41°11' E 016°59'816.6
2017-Sep-17 05:27N 41°07' E 017°08'2216.4
2017-Sep-17 04:06N 40°58' E 017°35'316.4
2017-Sep-17 03:54N 40°57' E 017°39'616.4
2017-Sep-17 03:30N 40°54' E 017°46'916.5
2017-Sep-17 03:00N 40°49' E 017°56'816.7
2017-Sep-17 02:30N 40°45' E 018°05'816.9
2017-Sep-17 02:01N 40°41' E 018°15'816.7
2017-Sep-17 01:31N 40°36' E 018°23'816.6
2017-Sep-17 01:01N 40°29' E 018°30'816.9
2017-Sep-17 00:30N 40°23' E 018°37'917.2
2017-Sep-17 00:00N 40°16' E 018°45'917.2
2017-Sep-16 23:30N 40°10' E 018°52'917.3
2017-Sep-16 23:00N 40°03' E 018°59'917.4
2017-Sep-16 22:30N 39°56' E 019°06'917.2
2017-Sep-16 22:00N 39°49' E 019°13'917.2
2017-Sep-16 21:29N 39°42' E 019°20'817.3
2017-Sep-16 21:01N 39°36' E 019°27'917.5
2017-Sep-16 20:31N 39°29' E 019°34'918.0
2017-Sep-16 20:00N 39°22' E 019°41'917.2
2017-Sep-16 19:30N 39°15' E 019°48'816.7
2017-Sep-16 19:00N 39°08' E 019°54'916.4
2017-Sep-16 18:29N 39°02' E 020°01'816.4
2017-Sep-16 18:00N 38°55' E 020°07'816.1
2017-Sep-16 17:31N 38°49' E 020°14'815.8
2017-Sep-16 17:00N 38°43' E 020°20'816.2
2017-Sep-16 16:30N 38°37' E 020°26'815.3
2017-Sep-16 16:00N 38°33' E 020°35'815.5
2017-Sep-16 15:30N 38°30' E 020°44'815.8
2017-Sep-16 15:00N 38°24' E 020°51'815.8
2017-Sep-16 14:30N 38°19' E 020°59'8 0.6
2017-Sep-16 01:29N 38°16' E 021°08'815.6
2017-Sep-16 01:00N 38°19' E 020°59'816.8
2017-Sep-16 00:30N 38°24' E 020°51'916.7
2017-Sep-15 23:57N 38°30' E 020°42'716.9
2017-Sep-15 23:31N 38°33' E 020°33'815.8
2017-Sep-15 23:00N 38°38' E 020°25'816.9
2017-Sep-15 22:31N 38°44' E 020°18'816.9
2017-Sep-15 22:00N 38°51' E 020°12'1417.1
2017-Sep-15 21:13N 39°02' E 020°02'417.2
2017-Sep-15 21:00N 39°05' E 019°59'917.3
2017-Sep-15 20:30N 39°12' E 019°52'2316.8
2017-Sep-15 19:08N 39°29' E 019°33'216.2
2017-Sep-15 19:00N 39°31' E 019°31'816.3
2017-Sep-15 18:30N 39°37' E 019°25'916.5
2017-Sep-15 17:56N 39°45' E 019°17'916.5
2017-Sep-15 17:22N 39°52' E 019°10'716.4
2017-Sep-15 16:58N 39°57' E 019°04'24212.3
2017-Sep-14 21:22N 42°49' E 015°18'615.8
2017-Sep-14 20:58N 42°54' E 015°12'1116.0
2017-Sep-14 20:15N 43°02' E 015°01'716.2
2017-Sep-14 19:48N 43°07' E 014°54'515.9
2017-Sep-14 19:31N 43°10' E 014°49'915.9
2017-Sep-14 18:57N 43°17' E 014°40'716.1
2017-Sep-14 18:31N 43°22' E 014°34'816.1
2017-Sep-14 18:00N 43°27' E 014°25'816.4
2017-Sep-14 17:31N 43°33' E 014°17'916.6
2017-Sep-14 16:57N 43°39' E 014°08'716.5
2017-Sep-14 16:30N 43°44' E 014°01'816.3
2017-Sep-14 16:00N 43°50' E 013°53'2216.3
2017-Sep-14 14:41N 44°03' E 013°29'316.4
2017-Sep-14 14:31N 44°05' E 013°26'816.3
2017-Sep-14 14:00N 44°10' E 013°16'816.3
2017-Sep-14 13:30N 44°16' E 013°10'816.3
2017-Sep-14 13:00N 44°24' E 013°07'816.4
2017-Sep-14 12:31N 44°32' E 013°04'816.2
2017-Sep-14 12:01N 44°40' E 013°00'816.4
2017-Sep-14 11:31N 44°47' E 012°56'816.6
2017-Sep-14 11:00N 44°55' E 012°50'817.0
2017-Sep-14 10:30N 45°02' E 012°45'816.5
2017-Sep-14 10:00N 45°08' E 012°37'816.1
2017-Sep-14 09:30N 45°15' E 012°30'816.1
2017-Sep-14 09:00N 45°20' E 012°21'4 8.8
2017-Sep-14 08:30N 45°22' E 012°15'4 7.5
2017-Sep-14 08:00N 45°26' E 012°15'0 0.0
2017-Sep-14 07:28N 45°26' E 012°15'0 0.0
2017-Sep-14 06:58N 45°26' E 012°15'0 0.0
2017-Sep-14 06:28N 45°26' E 012°15'0 0.0
2017-Sep-14 05:58N 45°26' E 012°15'0 0.0
2017-Sep-14 05:28N 45°26' E 012°15'0 0.0
2017-Sep-14 04:58N 45°26' E 012°15'0 0.0
2017-Sep-14 04:28N 45°26' E 012°15'0 0.0
2017-Sep-14 03:58N 45°26' E 012°15'0 0.0
2017-Sep-14 03:28N 45°26' E 012°15'0 0.0
2017-Sep-14 02:58N 45°26' E 012°15'0 0.0
2017-Sep-14 02:28N 45°26' E 012°15'0 0.0
2017-Sep-14 01:58N 45°26' E 012°15'0 0.0
2017-Sep-14 01:28N 45°26' E 012°15'0 0.0
2017-Sep-14 00:58N 45°26' E 012°15'0 0.0
2017-Sep-14 00:28N 45°26' E 012°15'0 0.0
2017-Sep-13 23:58N 45°26' E 012°15'0 0.0
2017-Sep-13 23:28N 45°26' E 012°15'0 0.0
2017-Sep-13 22:59N 45°26' E 012°15'0 0.8
2017-Sep-13 22:30N 45°25' E 012°16'4 8.7
2017-Sep-13 22:00N 45°21' E 012°16'510.2
2017-Sep-13 21:30N 45°19' E 012°23'816.5
2017-Sep-13 21:00N 45°16' E 012°34'816.7
2017-Sep-13 20:30N 45°11' E 012°43'816.3
2017-Sep-13 20:00N 45°04' E 012°50'816.9
2017-Sep-13 19:30N 44°56' E 012°55'917.2
2017-Sep-13 19:00N 44°48' E 012°60'917.3
2017-Sep-13 18:30N 44°41' E 013°05'917.3
2017-Sep-13 18:00N 44°32' E 013°09'917.2
2017-Sep-13 17:30N 44°24' E 013°13'2816.7
2017-Sep-13 15:49N 44°04' E 013°41'917.4
2017-Sep-13 15:17N 43°59' E 013°51'617.4
2017-Sep-13 14:56N 43°55' E 013°57'1417.1
2017-Sep-13 14:08N 43°47' E 014°13'217.1
2017-Sep-13 14:00N 43°46' E 014°15'917.2
2017-Sep-13 13:29N 43°40' E 014°25'  
2017-Sep-11 08:53N 38°38' E 020°25'3314.7
2017-Sep-11 06:38N 39°04' E 019°59'214.8
2017-Sep-11 06:30N 39°06' E 019°57'1415.4
2017-Sep-11 05:35N 39°17' E 019°46'115.6
2017-Sep-11 05:30N 39°18' E 019°45'815.2
2017-Sep-11 05:00N 39°24' E 019°39'815.5
2017-Sep-11 04:30N 39°30' E 019°32'815.8
2017-Sep-11 04:00N 39°36' E 019°26'815.9
2017-Sep-11 03:31N 39°42' E 019°20'815.6
2017-Sep-11 03:00N 39°49' E 019°14'815.6
2017-Sep-11 02:30N 39°55' E 019°07'2215.8
2017-Sep-11 01:07N 40°12' E 018°50'215.8
2017-Sep-11 00:59N 40°13' E 018°48'2015.8
2017-Sep-10 23:44N 40°29' E 018°32'415.7
2017-Sep-10 23:29N 40°32' E 018°28'816.0
2017-Sep-10 23:00N 40°38' E 018°22'30813.0
2017-Sep-09 23:21N 44°08' E 013°17'616.4
2017-Sep-09 23:00N 44°13' E 013°12'816.2
2017-Sep-09 22:30N 44°20' E 013°09'815.8
2017-Sep-09 22:00N 44°28' E 013°05'815.5
2017-Sep-09 21:30N 44°35' E 013°02'815.6
2017-Sep-09 21:00N 44°43' E 012°59'815.4
2017-Sep-09 20:30N 44°50' E 012°54'815.5
2017-Sep-09 20:00N 44°57' E 012°49'815.8
2017-Sep-09 19:30N 45°04' E 012°44'815.5
2017-Sep-09 19:00N 45°09' E 012°36'714.8
2017-Sep-09 18:31N 45°15' E 012°30'815.6
2017-Sep-09 18:01N 45°20' E 012°21'5 9.0
2017-Sep-09 17:30N 45°22' E 012°15'4 7.5
2017-Sep-09 17:00N 45°26' E 012°15'0 0.0
2017-Sep-09 16:30N 45°26' E 012°15'0 0.0
2017-Sep-09 16:00N 45°26' E 012°15'0 0.0
2017-Sep-09 15:30N 45°26' E 012°15'0 0.0
2017-Sep-09 15:00N 45°26' E 012°15'0 0.0
2017-Sep-09 14:30N 45°26' E 012°15'0 0.0
2017-Sep-09 14:00N 45°26' E 012°15'0 0.0
2017-Sep-09 13:30N 45°26' E 012°15'0 0.0
2017-Sep-09 13:00N 45°26' E 012°15'0 0.0
2017-Sep-09 12:30N 45°26' E 012°15'0 0.0
2017-Sep-09 12:00N 45°26' E 012°15'0 0.0
2017-Sep-09 11:30N 45°26' E 012°15'0 0.0
2017-Sep-09 11:00N 45°26' E 012°15'0 0.0
2017-Sep-09 10:30N 45°26' E 012°15'0 0.0
2017-Sep-09 10:00N 45°26' E 012°15'0 0.0
2017-Sep-09 09:30N 45°26' E 012°15'0 0.0
2017-Sep-09 09:00N 45°26' E 012°15'0 0.0
2017-Sep-09 08:30N 45°26' E 012°15'0 0.0
2017-Sep-09 08:00N 45°26' E 012°15'0 0.0
2017-Sep-09 07:30N 45°26' E 012°15'0 0.0
2017-Sep-09 07:00N 45°26' E 012°15'0 0.0
2017-Sep-09 06:30N 45°26' E 012°15'0 0.0
2017-Sep-09 06:00N 45°26' E 012°15'0 0.0
2017-Sep-09 05:30N 45°26' E 012°15'0 0.0
2017-Sep-09 05:00N 45°26' E 012°15'0 0.0
2017-Sep-09 04:30N 45°26' E 012°15'1 1.6
2017-Sep-09 04:00N 45°25' E 012°16'4 8.6
2017-Sep-09 03:30N 45°21' E 012°17'4 8.2
2017-Sep-09 03:00N 45°19' E 012°23'612.7
2017-Sep-09 02:31N 45°17' E 012°31'715.0
2017-Sep-09 02:01N 45°13' E 012°39'815.0
2017-Sep-09 01:31N 45°08' E 012°48'714.8
2017-Sep-09 01:01N 45°01' E 012°52'  
Track history (hours):
 
Tides and Currents Weather Stations Pressure Air Temp Water Temp Dewpoint Dewpoint Depression Visibility Wind Speed Wind Dir Waves Ship Positions

Superfast Canarias

Last reported at 2017-Sep-19 00:41 UTC. Time now 2017-Sep-20 02:07 UTC.
Position N 44°12' E 013°13'.

Length 185 m; draft 6.8 m.

Type: Cargo ship. MMSI: 224665000.

Date/timePositionNaut miles runAvg speedWind from/ knotsBaromVisibWave heightAir tempDewpointWater temp
2017-Sep-19 00:41N 44°12' E 013°13'315.9
2017-Sep-19 00:30N 44°15' E 013°12'815.9
2017-Sep-19 00:00N 44°22' E 013°08'815.7
2017-Sep-18 23:30N 44°30' E 013°05'815.7
2017-Sep-18 23:00N 44°37' E 013°01'815.4
2017-Sep-18 22:30N 44°44' E 012°58'815.3
2017-Sep-18 22:00N 44°51' E 012°53'815.4
2017-Sep-18 21:30N 44°58' E 012°48'815.6
2017-Sep-18 21:00N 45°05' E 012°42'815.5
2017-Sep-18 20:30N 45°10' E 012°34'815.5
2017-Sep-18 20:00N 45°16' E 012°27'713.1
2017-Sep-18 19:30N 45°20' E 012°20'4 7.8
2017-Sep-18 19:00N 45°22' E 012°15'3 5.6
2017-Sep-18 18:28N 45°26' E 012°15'0 0.0
2017-Sep-18 17:58N 45°26' E 012°15'0 0.0
2017-Sep-18 17:28N 45°26' E 012°15'0 0.0
2017-Sep-18 16:58N 45°26' E 012°15'0 0.0
2017-Sep-18 16:25N 45°26' E 012°15'0 0.0
2017-Sep-18 15:58N 45°26' E 012°15'0 0.0
2017-Sep-18 15:28N 45°26' E 012°15'0 0.0
2017-Sep-18 14:58N 45°26' E 012°15'0 0.0
2017-Sep-18 14:28N 45°26' E 012°15'0 0.0
2017-Sep-18 13:58N 45°26' E 012°15'0 0.0
2017-Sep-18 13:28N 45°26' E 012°15'0 0.0
2017-Sep-18 12:58N 45°26' E 012°15'0 0.0
2017-Sep-18 12:28N 45°26' E 012°15'0 0.0
2017-Sep-18 11:58N 45°26' E 012°15'0 0.0
2017-Sep-18 11:28N 45°26' E 012°15'0 0.0
2017-Sep-18 10:58N 45°26' E 012°15'0 0.0
2017-Sep-18 10:28N 45°26' E 012°15'0 0.0
2017-Sep-18 09:58N 45°26' E 012°15'0 0.0
2017-Sep-18 09:28N 45°26' E 012°15'0 0.0
2017-Sep-18 08:58N 45°26' E 012°15'0 0.0
2017-Sep-18 08:28N 45°26' E 012°15'0 0.0
2017-Sep-18 07:58N 45°26' E 012°15'1 1.4
2017-Sep-18 07:30N 45°25' E 012°16'4 8.5
2017-Sep-18 07:00N 45°21' E 012°17'510.0
2017-Sep-18 06:31N 45°20' E 012°24'816.7
2017-Sep-18 06:01N 45°16' E 012°34'816.8
2017-Sep-18 05:31N 45°12' E 012°44'817.0
2017-Sep-18 05:01N 45°04' E 012°50'917.3
2017-Sep-18 04:30N 44°56' E 012°55'917.3
2017-Sep-18 04:01N 44°48' E 012°60'917.4
2017-Sep-18 03:30N 44°40' E 013°04'917.4
2017-Sep-18 03:01N 44°32' E 013°08'26312.5
2017-Sep-17 05:55N 41°11' E 016°59'816.6
2017-Sep-17 05:27N 41°07' E 017°08'2216.4
2017-Sep-17 04:06N 40°58' E 017°35'316.4
2017-Sep-17 03:54N 40°57' E 017°39'616.4
2017-Sep-17 03:30N 40°54' E 017°46'916.5
2017-Sep-17 03:00N 40°49' E 017°56'816.7
2017-Sep-17 02:30N 40°45' E 018°05'816.9
2017-Sep-17 02:01N 40°41' E 018°15'816.7
2017-Sep-17 01:31N 40°36' E 018°23'816.6
2017-Sep-17 01:01N 40°29' E 018°30'816.9
2017-Sep-17 00:30N 40°23' E 018°37'917.2
2017-Sep-17 00:00N 40°16' E 018°45'917.2
2017-Sep-16 23:30N 40°10' E 018°52'917.3
2017-Sep-16 23:00N 40°03' E 018°59'917.4
2017-Sep-16 22:30N 39°56' E 019°06'917.2
2017-Sep-16 22:00N 39°49' E 019°13'917.2
2017-Sep-16 21:29N 39°42' E 019°20'817.3
2017-Sep-16 21:01N 39°36' E 019°27'917.5
2017-Sep-16 20:31N 39°29' E 019°34'918.0
2017-Sep-16 20:00N 39°22' E 019°41'917.2
2017-Sep-16 19:30N 39°15' E 019°48'816.7
2017-Sep-16 19:00N 39°08' E 019°54'916.4
2017-Sep-16 18:29N 39°02' E 020°01'816.4
2017-Sep-16 18:00N 38°55' E 020°07'816.1
2017-Sep-16 17:31N 38°49' E 020°14'815.8
2017-Sep-16 17:00N 38°43' E 020°20'816.2
2017-Sep-16 16:30N 38°37' E 020°26'815.3
2017-Sep-16 16:00N 38°33' E 020°35'815.5
2017-Sep-16 15:30N 38°30' E 020°44'815.8
2017-Sep-16 15:00N 38°24' E 020°51'815.8
2017-Sep-16 14:30N 38°19' E 020°59'8 0.6
2017-Sep-16 01:29N 38°16' E 021°08'815.6
2017-Sep-16 01:00N 38°19' E 020°59'816.8
2017-Sep-16 00:30N 38°24' E 020°51'916.7
2017-Sep-15 23:57N 38°30' E 020°42'716.9
2017-Sep-15 23:31N 38°33' E 020°33'815.8
2017-Sep-15 23:00N 38°38' E 020°25'816.9
2017-Sep-15 22:31N 38°44' E 020°18'816.9
2017-Sep-15 22:00N 38°51' E 020°12'1417.1
2017-Sep-15 21:13N 39°02' E 020°02'417.2
2017-Sep-15 21:00N 39°05' E 019°59'917.3
2017-Sep-15 20:30N 39°12' E 019°52'2316.8
2017-Sep-15 19:08N 39°29' E 019°33'216.2
2017-Sep-15 19:00N 39°31' E 019°31'816.3
2017-Sep-15 18:30N 39°37' E 019°25'916.5
2017-Sep-15 17:56N 39°45' E 019°17'916.5
2017-Sep-15 17:22N 39°52' E 019°10'716.4
2017-Sep-15 16:58N 39°57' E 019°04'24212.3
2017-Sep-14 21:22N 42°49' E 015°18'615.8
2017-Sep-14 20:58N 42°54' E 015°12'1116.0
2017-Sep-14 20:15N 43°02' E 015°01'716.2
2017-Sep-14 19:48N 43°07' E 014°54'515.9
2017-Sep-14 19:31N 43°10' E 014°49'915.9
2017-Sep-14 18:57N 43°17' E 014°40'716.1
2017-Sep-14 18:31N 43°22' E 014°34'816.1
2017-Sep-14 18:00N 43°27' E 014°25'816.4
2017-Sep-14 17:31N 43°33' E 014°17'916.6
2017-Sep-14 16:57N 43°39' E 014°08'716.5
2017-Sep-14 16:30N 43°44' E 014°01'816.3
2017-Sep-14 16:00N 43°50' E 013°53'2216.3
2017-Sep-14 14:41N 44°03' E 013°29'316.4
2017-Sep-14 14:31N 44°05' E 013°26'816.3
2017-Sep-14 14:00N 44°10' E 013°16'816.3
2017-Sep-14 13:30N 44°16' E 013°10'816.3
2017-Sep-14 13:00N 44°24' E 013°07'816.4
2017-Sep-14 12:31N 44°32' E 013°04'816.2
2017-Sep-14 12:01N 44°40' E 013°00'816.4
2017-Sep-14 11:31N 44°47' E 012°56'816.6
2017-Sep-14 11:00N 44°55' E 012°50'817.0
2017-Sep-14 10:30N 45°02' E 012°45'816.5
2017-Sep-14 10:00N 45°08' E 012°37'816.1
2017-Sep-14 09:30N 45°15' E 012°30'816.1
2017-Sep-14 09:00N 45°20' E 012°21'4 8.8
2017-Sep-14 08:30N 45°22' E 012°15'4 7.5
2017-Sep-14 08:00N 45°26' E 012°15'0 0.0
2017-Sep-14 07:28N 45°26' E 012°15'0 0.0
2017-Sep-14 06:58N 45°26' E 012°15'0 0.0
2017-Sep-14 06:28N 45°26' E 012°15'0 0.0
2017-Sep-14 05:58N 45°26' E 012°15'0 0.0
2017-Sep-14 05:28N 45°26' E 012°15'0 0.0
2017-Sep-14 04:58N 45°26' E 012°15'0 0.0
2017-Sep-14 04:28N 45°26' E 012°15'0 0.0
2017-Sep-14 03:58N 45°26' E 012°15'0 0.0
2017-Sep-14 03:28N 45°26' E 012°15'0 0.0
2017-Sep-14 02:58N 45°26' E 012°15'0 0.0
2017-Sep-14 02:28N 45°26' E 012°15'0 0.0
2017-Sep-14 01:58N 45°26' E 012°15'0 0.0
2017-Sep-14 01:28N 45°26' E 012°15'0 0.0
2017-Sep-14 00:58N 45°26' E 012°15'0 0.0
2017-Sep-14 00:28N 45°26' E 012°15'0 0.0
2017-Sep-13 23:58N 45°26' E 012°15'0 0.0
2017-Sep-13 23:28N 45°26' E 012°15'0 0.0
2017-Sep-13 22:59N 45°26' E 012°15'0 0.8
2017-Sep-13 22:30N 45°25' E 012°16'4 8.7
2017-Sep-13 22:00N 45°21' E 012°16'510.2
2017-Sep-13 21:30N 45°19' E 012°23'816.5
2017-Sep-13 21:00N 45°16' E 012°34'816.7
2017-Sep-13 20:30N 45°11' E 012°43'816.3
2017-Sep-13 20:00N 45°04' E 012°50'816.9
2017-Sep-13 19:30N 44°56' E 012°55'917.2
2017-Sep-13 19:00N 44°48' E 012°60'917.3
2017-Sep-13 18:30N 44°41' E 013°05'917.3
2017-Sep-13 18:00N 44°32' E 013°09'917.2
2017-Sep-13 17:30N 44°24' E 013°13'2816.7
2017-Sep-13 15:49N 44°04' E 013°41'917.4
2017-Sep-13 15:17N 43°59' E 013°51'617.4
2017-Sep-13 14:56N 43°55' E 013°57'1417.1
2017-Sep-13 14:08N 43°47' E 014°13'217.1
2017-Sep-13 14:00N 43°46' E 014°15'917.2
2017-Sep-13 13:29N 43°40' E 014°25'  
2017-Sep-11 08:53N 38°38' E 020°25'3314.7
2017-Sep-11 06:38N 39°04' E 019°59'214.8
2017-Sep-11 06:30N 39°06' E 019°57'1415.4
2017-Sep-11 05:35N 39°17' E 019°46'115.6
2017-Sep-11 05:30N 39°18' E 019°45'815.2
2017-Sep-11 05:00N 39°24' E 019°39'815.5
2017-Sep-11 04:30N 39°30' E 019°32'815.8
2017-Sep-11 04:00N 39°36' E 019°26'815.9
2017-Sep-11 03:31N 39°42' E 019°20'815.6
2017-Sep-11 03:00N 39°49' E 019°14'815.6
2017-Sep-11 02:30N 39°55' E 019°07'2215.8
2017-Sep-11 01:07N 40°12' E 018°50'215.8
2017-Sep-11 00:59N 40°13' E 018°48'2015.8
2017-Sep-10 23:44N 40°29' E 018°32'415.7
2017-Sep-10 23:29N 40°32' E 018°28'816.0
2017-Sep-10 23:00N 40°38' E 018°22'30813.0
2017-Sep-09 23:21N 44°08' E 013°17'616.4
2017-Sep-09 23:00N 44°13' E 013°12'816.2
2017-Sep-09 22:30N 44°20' E 013°09'815.8
2017-Sep-09 22:00N 44°28' E 013°05'815.5
2017-Sep-09 21:30N 44°35' E 013°02'815.6
2017-Sep-09 21:00N 44°43' E 012°59'815.4
2017-Sep-09 20:30N 44°50' E 012°54'815.5
2017-Sep-09 20:00N 44°57' E 012°49'815.8
2017-Sep-09 19:30N 45°04' E 012°44'815.5
2017-Sep-09 19:00N 45°09' E 012°36'714.8
2017-Sep-09 18:31N 45°15' E 012°30'815.6
2017-Sep-09 18:01N 45°20' E 012°21'5 9.0
2017-Sep-09 17:30N 45°22' E 012°15'4 7.5
2017-Sep-09 17:00N 45°26' E 012°15'0 0.0
2017-Sep-09 16:30N 45°26' E 012°15'0 0.0
2017-Sep-09 16:00N 45°26' E 012°15'0 0.0
2017-Sep-09 15:30N 45°26' E 012°15'0 0.0
2017-Sep-09 15:00N 45°26' E 012°15'0 0.0
2017-Sep-09 14:30N 45°26' E 012°15'0 0.0
2017-Sep-09 14:00N 45°26' E 012°15'0 0.0
2017-Sep-09 13:30N 45°26' E 012°15'0 0.0
2017-Sep-09 13:00N 45°26' E 012°15'0 0.0
2017-Sep-09 12:30N 45°26' E 012°15'0 0.0
2017-Sep-09 12:00N 45°26' E 012°15'0 0.0
2017-Sep-09 11:30N 45°26' E 012°15'0 0.0
2017-Sep-09 11:00N 45°26' E 012°15'0 0.0
2017-Sep-09 10:30N 45°26' E 012°15'0 0.0
2017-Sep-09 10:00N 45°26' E 012°15'0 0.0
2017-Sep-09 09:30N 45°26' E 012°15'0 0.0
2017-Sep-09 09:00N 45°26' E 012°15'0 0.0
2017-Sep-09 08:30N 45°26' E 012°15'0 0.0
2017-Sep-09 08:00N 45°26' E 012°15'0 0.0
2017-Sep-09 07:30N 45°26' E 012°15'0 0.0
2017-Sep-09 07:00N 45°26' E 012°15'0 0.0
2017-Sep-09 06:30N 45°26' E 012°15'0 0.0
2017-Sep-09 06:00N 45°26' E 012°15'0 0.0
2017-Sep-09 05:30N 45°26' E 012°15'0 0.0
2017-Sep-09 05:00N 45°26' E 012°15'0 0.0
2017-Sep-09 04:30N 45°26' E 012°15'1 1.6
2017-Sep-09 04:00N 45°25' E 012°16'4 8.6
2017-Sep-09 03:30N 45°21' E 012°17'4 8.2
2017-Sep-09 03:00N 45°19' E 012°23'612.7
2017-Sep-09 02:31N 45°17' E 012°31'715.0
2017-Sep-09 02:01N 45°13' E 012°39'815.0
2017-Sep-09 01:31N 45°08' E 012°48'714.8
2017-Sep-09 01:01N 45°01' E 012°52'  

Dump ship's entire track history